Terminal Aerodrome Forecast
Issued by NWS

Home | Current Version | Previous Version | Text Only | Print | Product List | Glossary On
Versions: 1 2 3 4 5 6 7 8 9 10 11 12 13 14 15 16 17 18 19 20 21 22 23 24 25 26 27 28 29 30 31 32 33 34
000
FTUS45 KBOI 301120
TAFTWF
TAF
KTWF 301120Z 3012/3112 15006KT P6SM FEW100 BKN200
     FM301600 05006KT P6SM SCT100 BKN200
     FM302100 33006KT P6SM VCTS SCT080CB BKN150
     FM310400 14005KT P6SM SCT080 BKN150=

USA.gov is the U.S. government's official web portal to all federal, state and local government web resources and services.